Hicksville, OH (43526)

10:24 PM EDT on August 29, 2015 (GMT -0400)
Hicksville | | Change Station
CLOSE
Current Station
Personal Weather Station
Location: Hicksville, OH
Elevation: 774 ft
Nearby Weather Stations

Elev 774 ft 41.30 °N, 84.76 °W | Updated 55 seconds ago

Rain
Rain
69.6 °F
Feels Like 69.6 °F
N
0.0
Wind Variable Wind from NNW

Today
High -- | Low -- °F
--% Chance of Precip.
Yesterday
High -- | Low -- °F
Precip. -- in
7:02 AM 8:17 PM
Full, 100% visible
Pressure 30.06 in
Visibility 5.0 miles
Clouds Few 8500 ft
Overcast 10000 ft
Dew Point 68 °F
Humidity 96%
Rainfall 0.14 in
Snow Depth Not available.
UV 0 out of 12
Pollen 9.30 out of 12
Air Quality Not available.
Flu Activity Not available.
METAR KDFI 300153Z AUTO 03003KT 5SM -RA BR FEW085 OVC100 22/20 A3007 RMK AO2 RAB0059 SLP180 P0001 T02170200 $
Pressure 30.06 in
Visibility 5.0 miles
Clouds Few 8500 ft
Overcast 10000 ft
Dew Point 68 °F
Humidity 96%
Rainfall 0.14 in
Snow Depth Not available.
UV 0 out of 12
Pollen 9.30 out of 12
Air Quality Not available.
Flu Activity Not available.
METAR KDFI 300153Z AUTO 03003KT 5SM -RA BR FEW085 OVC100 22/20 A3007 RMK AO2 RAB0059 SLP180 P0001 T02170200 $

10-Day Weather Forecast

×

Almanac

Astronomy

Aug. 29, 2015 Rise Set
Actual Time
Civil Twilight
Nautical Twilight
Astronomical Twilight
Moon
Length of Visible Light
Length of Day
Tomorrow will be .
, % of the Moon is Illuminated

Today's Extremes

State Highs State Lows

Community

WunderPhotos

Upload Photos

1,850,850 photos uploaded!

WunderBlogs® & News

Nearby

Air Quality

  Air Quality AQ Index Pollutant
Not available.

Snow Depth

Station Depth Elevation

Earthquake Activity

City Distance Mag. Time & Date
Minimum magnitude displayed is 2.5.

Coastal Water Temperatures

Place Temperature

Stations

Nearby Weather Stations

Station Location Temp. Windchill Dew Point Humidity Wind Precip. Elev Updated Type